Time;durP1;ratioP1;P1;durP2;ratioP2;P2;SDS_P1;SDS_P2;PMS_P1;PMS_P2;Temp;Humidity;BMP_temperature;BMP_pressure;BME280_temperature;BME280_humidity;BME280_pressure;Samples;Min_cycle;Max_cycle;Signal;HPM_P1;HPM_P2
2021/04/05 00:00:14;;;;;;;31.57;22.93;;;;;;;;;;2043852;28;20191;-63
2021/04/05 00:01:14;;;;;;;26.23;18.33;;;;;;;;;;2049588;28;20648;-60
2021/04/05 00:02:15;;;;;;;33.23;22.40;;;;;;;;;;2052453;28;20214;-62
2021/04/05 00:03:15;;;;;;;35.67;23.53;;;;;;;;;;2041285;28;20330;-63
2021/04/05 00:04:15;;;;;;;26.47;18.40;;;;;;;;;;2042314;29;20203;-62
2021/04/05 00:05:17;;;;;;;35.43;23.77;;;;;;;;;;2042407;29;20187;-63
2021/04/05 00:06:22;;;;;;;33.93;22.97;;;;;;;;;;2042187;29;20274;-63
2021/04/05 00:07:22;;;;;;;29.67;21.40;;;;;;;;;;2046198;29;20565;-63
2021/04/05 00:08:22;;;;;;;30.03;22.83;;;;;;;;;;2042411;28;20184;-63
2021/04/05 00:09:22;;;;;;;32.27;22.47;;;;;;;;;;2043078;29;20867;-62
2021/04/05 00:10:23;;;;;;;31.67;23.30;;;;;;;;;;2044088;29;20241;-61
2021/04/05 00:11:23;;;;;;;33.97;24.27;;;;;;;;;;2043830;29;20183;-62
2021/04/05 00:12:23;;;;;;;32.70;23.40;;;;;;;;;;2041532;29;20307;-61
2021/04/05 00:13:25;;;;;;;33.67;24.37;;;;;;;;;;2041199;29;20283;-62
2021/04/05 00:14:26;;;;;;;30.47;22.30;;;;;;;;;;2046175;29;20183;-62
2021/04/05 00:15:27;;;;;;;26.50;20.00;;;;;;;;;;2038059;29;20255;-62
2021/04/05 00:16:27;;;;;;;32.73;24.67;;;;;;;;;;2041530;29;20180;-62
2021/04/05 00:17:27;;;;;;;31.60;23.20;;;;;;;;;;2046464;29;20239;-63
2021/04/05 00:18:28;;;;;;;32.23;22.33;;;;;;;;;;2041165;29;20180;-59
2021/04/05 00:19:28;;;;;;;30.77;23.60;;;;;;;;;;2043333;29;20179;-62
2021/04/05 00:20:30;;;;;;;31.50;24.23;;;;;;;;;;2038195;29;20212;-62
2021/04/05 00:21:30;;;;;;;35.17;22.47;;;;;;;;;;2040949;29;20176;-64
2021/04/05 00:22:30;;;;;;;33.03;22.20;;;;;;;;;;2046846;29;20180;-63
2021/04/05 00:23:31;;;;;;;28.07;17.90;;;;;;;;;;2041516;28;20251;-63
2021/04/05 00:24:31;;;;;;;32.97;23.33;;;;;;;;;;2042435;29;20663;-62
2021/04/05 00:25:32;;;;;;;32.27;21.60;;;;;;;;;;2041769;29;20660;-60
2021/04/05 00:26:32;;;;;;;31.57;21.13;;;;;;;;;;2042861;29;20175;-61
2021/04/05 00:27:32;;;;;;;31.33;23.97;;;;;;;;;;2043858;29;20171;-60
2021/04/05 00:28:33;;;;;;;30.57;22.67;;;;;;;;;;2043644;29;20428;-57
2021/04/05 00:29:33;;;;;;;34.30;22.60;;;;;;;;;;2047426;29;20554;-63
2021/04/05 00:30:34;;;;;;;31.40;23.03;;;;;;;;;;2046062;28;20206;-61
2021/04/05 00:31:35;;;;;;;28.80;21.93;;;;;;;;;;2051437;28;20193;-64
2021/04/05 00:32:35;;;;;;;34.70;24.03;;;;;;;;;;2050631;28;20197;-60
2021/04/05 00:33:35;;;;;;;31.93;23.70;;;;;;;;;;2047737;28;20175;-62
2021/04/05 00:34:36;;;;;;;33.80;23.40;;;;;;;;;;2042072;29;20175;-60
2021/04/05 00:35:37;;;;;;;27.70;18.93;;;;;;;;;;2040312;29;20263;-63
2021/04/05 00:36:38;;;;;;;30.70;23.60;;;;;;;;;;2042748;29;20176;-62
2021/04/05 00:37:38;;;;;;;32.63;24.03;;;;;;;;;;2041329;29;20167;-64
2021/04/05 00:38:38;;;;;;;34.07;22.87;;;;;;;;;;2044638;29;20184;-61
2021/04/05 00:39:39;;;;;;;31.13;21.80;;;;;;;;;;2042861;29;20262;-63
2021/04/05 00:40:42;;;;;;;30.27;21.67;;;;;;;;;;2042598;29;20258;-63
2021/04/05 00:41:43;;;;;;;28.67;21.87;;;;;;;;;;2043224;29;20231;-60
2021/04/05 00:42:44;;;;;;;30.57;23.00;;;;;;;;;;2042054;29;20236;-63
2021/04/05 00:43:46;;;;;;;28.10;20.17;;;;;;;;;;2046066;29;20205;-64
2021/04/05 00:44:46;;;;;;;30.47;20.90;;;;;;;;;;2041811;29;20259;-63
2021/04/05 00:45:47;;;;;;;30.33;21.33;;;;;;;;;;2041854;29;20596;-63
2021/04/05 00:46:47;;;;;;;34.27;22.67;;;;;;;;;;2041547;29;20203;-63
2021/04/05 00:47:48;;;;;;;32.83;21.57;;;;;;;;;;2044957;29;20172;-62
2021/04/05 00:48:49;;;;;;;31.87;20.30;;;;;;;;;;2040873;29;20250;-62
2021/04/05 00:49:49;;;;;;;30.30;21.13;;;;;;;;;;2042790;29;20183;-61
2021/04/05 00:50:52;;;;;;;32.43;22.23;;;;;;;;;;2035160;29;20607;-64
2021/04/05 00:51:53;;;;;;;31.10;23.63;;;;;;;;;;2045065;29;20211;-63
2021/04/05 00:52:54;;;;;;;32.67;22.30;;;;;;;;;;2044657;29;20227;-63
2021/04/05 00:53:55;;;;;;;25.90;19.13;;;;;;;;;;2041744;28;20183;-64
2021/04/05 00:54:55;;;;;;;31.13;19.10;;;;;;;;;;2042749;28;20180;-62
2021/04/05 00:55:58;;;;;;;31.77;21.57;;;;;;;;;;2041814;29;20275;-59
2021/04/05 00:56:58;;;;;;;29.20;20.07;;;;;;;;;;2042955;29;20187;-64
2021/04/05 00:57:59;;;;;;;30.00;19.03;;;;;;;;;;2046564;28;20263;-64
2021/04/05 00:58:59;;;;;;;31.37;22.07;;;;;;;;;;2047348;28;20222;-64
2021/04/05 01:00:00;;;;;;;29.47;18.53;;;;;;;;;;2041728;28;20195;-62
2021/04/05 01:01:02;;;;;;;26.10;17.90;;;;;;;;;;2049508;28;20183;-62
2021/04/05 01:02:03;;;;;;;30.67;22.40;;;;;;;;;;2054727;28;20178;-65
2021/04/05 01:03:04;;;;;;;30.20;20.07;;;;;;;;;;2043597;29;20186;-61
2021/04/05 01:04:05;;;;;;;29.17;20.50;;;;;;;;;;2056297;28;20233;-64
2021/04/05 01:05:05;;;;;;;31.43;21.13;;;;;;;;;;2056697;28;20224;-63
2021/04/05 01:06:10;;;;;;;27.97;21.07;;;;;;;;;;2049786;28;20178;-63
2021/04/05 01:07:10;;;;;;;34.03;22.83;;;;;;;;;;2049803;28;20197;-64
2021/04/05 01:08:12;;;;;;;28.53;20.50;;;;;;;;;;2049208;29;20187;-64
2021/04/05 01:09:13;;;;;;;31.00;20.13;;;;;;;;;;2043746;29;20630;-64
2021/04/05 01:10:13;;;;;;;31.80;23.37;;;;;;;;;;2046066;29;20196;-64
2021/04/05 01:11:14;;;;;;;33.17;22.90;;;;;;;;;;2043724;29;20217;-65
2021/04/05 01:12:14;;;;;;;30.37;23.43;;;;;;;;;;2045109;29;20198;-64
2021/04/05 01:13:15;;;;;;;33.63;23.20;;;;;;;;;;2046209;28;20180;-63
2021/04/05 01:14:15;;;;;;;35.13;21.83;;;;;;;;;;2045397;29;20170;-63
2021/04/05 01:15:16;;;;;;;30.60;23.23;;;;;;;;;;2049701;28;20194;-63
2021/04/05 01:16:16;;;;;;;28.63;19.70;;;;;;;;;;2041268;28;20186;-64
2021/04/05 01:17:17;;;;;;;35.13;24.37;;;;;;;;;;2040349;29;20243;-61
2021/04/05 01:18:17;;;;;;;33.97;23.37;;;;;;;;;;2042434;29;20194;-64
2021/04/05 01:19:17;;;;;;;25.03;18.90;;;;;;;;;;2041349;29;20676;-61
2021/04/05 01:20:18;;;;;;;32.77;24.23;;;;;;;;;;2045661;29;20183;-64
2021/04/05 01:21:19;;;;;;;35.30;21.03;;;;;;;;;;2045901;28;20214;-64
2021/04/05 01:22:19;;;;;;;30.13;19.50;;;;;;;;;;2053039;28;20174;-64
2021/04/05 01:23:20;;;;;;;32.47;24.33;;;;;;;;;;2056592;28;20675;-60
2021/04/05 01:24:21;;;;;;;32.70;23.83;;;;;;;;;;2049638;28;20171;-64
2021/04/05 01:25:22;;;;;;;29.37;20.13;;;;;;;;;;2049068;28;20640;-63
2021/04/05 01:26:22;;;;;;;32.97;22.23;;;;;;;;;;2047348;28;20246;-65
2021/04/05 01:27:22;;;;;;;30.20;21.23;;;;;;;;;;2045730;29;20186;-64
2021/04/05 01:28:23;;;;;;;34.53;22.60;;;;;;;;;;2044582;29;20184;-64
2021/04/05 01:29:23;;;;;;;31.93;24.03;;;;;;;;;;2037423;29;20218;-64
2021/04/05 01:30:32;;;;;;;40.40;24.50;;;;;;;;;;2047065;29;20194;-64
2021/04/05 01:31:32;;;;;;;35.33;21.57;;;;;;;;;;2045392;29;20265;-64
2021/04/05 01:32:33;;;;;;;32.90;23.03;;;;;;;;;;2046923;29;20171;-64
2021/04/05 01:33:34;;;;;;;33.23;23.30;;;;;;;;;;2041485;28;20179;-64
2021/04/05 01:34:38;;;;;;;27.37;17.77;;;;;;;;;;2041617;29;20627;-65
2021/04/05 01:35:43;;;;;;;35.57;24.10;;;;;;;;;;2041472;29;20543;-64
2021/04/05 01:36:43;;;;;;;34.83;24.23;;;;;;;;;;2048674;29;20178;-63
2021/04/05 01:37:43;;;;;;;32.67;24.43;;;;;;;;;;2048782;28;20226;-63
2021/04/05 01:38:48;;;;;;;30.73;23.13;;;;;;;;;;2049296;28;20201;-63
2021/04/05 01:39:48;;;;;;;35.17;24.53;;;;;;;;;;2049466;28;20633;-63
2021/04/05 01:40:50;;;;;;;33.73;23.93;;;;;;;;;;2040601;29;20176;-62
2021/04/05 01:41:50;;;;;;;34.23;23.43;;;;;;;;;;2041055;28;20191;-60
2021/04/05 01:42:51;;;;;;;35.83;24.67;;;;;;;;;;2056706;28;20202;-63
2021/04/05 01:43:51;;;;;;;33.10;23.20;;;;;;;;;;2041124;29;20540;-64
2021/04/05 01:44:52;;;;;;;31.50;22.13;;;;;;;;;;2041717;29;20649;-59
2021/04/05 01:45:53;;;;;;;31.90;21.07;;;;;;;;;;2040878;29;20238;-61
2021/04/05 01:46:53;;;;;;;37.53;22.23;;;;;;;;;;2048796;29;20686;-60
2021/04/05 01:47:53;;;;;;;35.47;23.70;;;;;;;;;;2040814;29;20235;-64
2021/04/05 01:48:57;;;;;;;28.63;17.93;;;;;;;;;;2043737;28;20295;-64
2021/04/05 01:49:57;;;;;;;33.63;23.47;;;;;;;;;;2048124;28;20254;-64
2021/04/05 01:50:57;;;;;;;32.50;21.50;;;;;;;;;;2042468;29;20188;-64
2021/04/05 01:51:57;;;;;;;28.27;18.93;;;;;;;;;;2049352;28;20230;-60
2021/04/05 01:53:02;;;;;;;34.07;23.07;;;;;;;;;;2049192;28;20175;-63
2021/04/05 01:54:02;;;;;;;33.80;23.37;;;;;;;;;;2048422;28;20175;-63
2021/04/05 01:55:03;;;;;;;36.87;23.67;;;;;;;;;;2048817;29;20215;-62
2021/04/05 01:56:05;;;;;;;32.67;21.27;;;;;;;;;;2048101;29;20187;-62
2021/04/05 01:57:07;;;;;;;24.77;17.07;;;;;;;;;;2046238;29;20745;-64
2021/04/05 01:58:08;;;;;;;34.83;23.50;;;;;;;;;;2046300;29;20171;-63
2021/04/05 01:59:09;;;;;;;33.83;22.80;;;;;;;;;;2048565;28;20580;-64
2021/04/05 02:00:11;;;;;;;35.37;24.37;;;;;;;;;;2048447;29;20241;-63
2021/04/05 02:01:14;;;;;;;33.10;22.90;;;;;;;;;;2047598;28;20182;-64
2021/04/05 02:02:15;;;;;;;31.17;18.50;;;;;;;;;;2040750;29;20187;-63
2021/04/05 02:03:15;;;;;;;28.23;18.83;;;;;;;;;;2040599;29;20171;-63
2021/04/05 02:04:15;;;;;;;26.83;18.53;;;;;;;;;;2041326;29;20322;-61
2021/04/05 02:05:16;;;;;;;28.27;19.03;;;;;;;;;;2044167;29;20233;-62
2021/04/05 02:06:26;;;;;;;24.43;16.97;;;;;;;;;;2045097;28;20176;-64
2021/04/05 02:07:27;;;;;;;29.60;21.77;;;;;;;;;;2044232;29;20900;-64
2021/04/05 02:08:28;;;;;;;31.17;20.80;;;;;;;;;;2040711;29;20174;-64
2021/04/05 02:09:28;;;;;;;36.43;24.27;;;;;;;;;;2040681;29;20290;-63
2021/04/05 02:10:28;;;;;;;26.90;19.03;;;;;;;;;;2040775;29;20178;-61
2021/04/05 02:11:31;;;;;;;31.63;22.87;;;;;;;;;;2040793;29;20203;-63
2021/04/05 02:12:32;;;;;;;25.30;18.13;;;;;;;;;;2040939;29;20266;-62
2021/04/05 02:13:32;;;;;;;34.60;22.03;;;;;;;;;;2040525;29;20171;-62
2021/04/05 02:14:33;;;;;;;33.77;22.03;;;;;;;;;;2041460;29;20183;-62
2021/04/05 02:15:33;;;;;;;31.97;21.37;;;;;;;;;;2041292;29;20181;-64
2021/04/05 02:16:34;;;;;;;30.03;20.97;;;;;;;;;;2041321;29;20310;-62
2021/04/05 02:17:35;;;;;;;31.53;22.00;;;;;;;;;;2039808;29;20199;-60
2021/04/05 02:18:36;;;;;;;29.07;19.93;;;;;;;;;;2033592;29;20219;-61
2021/04/05 02:19:36;;;;;;;33.43;21.57;;;;;;;;;;2033493;29;20657;-63
2021/04/05 02:20:37;;;;;;;27.73;19.40;;;;;;;;;;2040778;29;20179;-62
2021/04/05 02:21:37;;;;;;;26.07;17.40;;;;;;;;;;2040531;29;20186;-64
2021/04/05 02:22:41;;;;;;;29.77;21.60;;;;;;;;;;2040819;29;20258;-65
2021/04/05 02:23:42;;;;;;;26.50;18.27;;;;;;;;;;2039967;29;20179;-62
2021/04/05 02:24:42;;;;;;;30.97;20.87;;;;;;;;;;2033480;29;20195;-63
2021/04/05 02:27:02;;;;;;;27.83;20.37;;;;;;;;;;2032962;29;20161;-63
2021/04/05 02:28:03;;;;;;;26.73;17.53;;;;;;;;;;2037985;29;20198;-63
2021/04/05 02:29:04;;;;;;;31.60;22.70;;;;;;;;;;2048624;29;20199;-64
2021/04/05 02:30:05;;;;;;;30.47;19.70;;;;;;;;;;2048389;29;20175;-62
2021/04/05 02:31:07;;;;;;;27.60;17.33;;;;;;;;;;2041333;29;20600;-60
2021/04/05 02:32:07;;;;;;;28.47;18.17;;;;;;;;;;2041072;29;20207;-61
2021/04/05 02:33:07;;;;;;;23.03;16.47;;;;;;;;;;2041154;29;20792;-59
2021/04/05 02:34:10;;;;;;;28.60;18.73;;;;;;;;;;2039202;29;20611;-62
2021/04/05 02:35:11;;;;;;;31.97;20.17;;;;;;;;;;2040421;29;20601;-64
2021/04/05 02:36:12;;;;;;;30.73;20.00;;;;;;;;;;2037264;29;20180;-64
2021/04/05 02:37:13;;;;;;;29.40;18.50;;;;;;;;;;2032922;29;20216;-64
2021/04/05 02:38:14;;;;;;;29.37;19.60;;;;;;;;;;2032378;29;20275;-64
2021/04/05 02:39:15;;;;;;;33.90;21.30;;;;;;;;;;2041667;29;20207;-64
2021/04/05 02:40:15;;;;;;;28.47;20.63;;;;;;;;;;2045322;28;20184;-64
2021/04/05 02:41:16;;;;;;;26.40;18.47;;;;;;;;;;2044132;29;20198;-63
2021/04/05 02:42:17;;;;;;;35.67;19.27;;;;;;;;;;2042125;29;20195;-60
2021/04/05 02:43:18;;;;;;;24.83;15.97;;;;;;;;;;2040097;29;20179;-62
2021/04/05 02:44:19;;;;;;;29.00;15.93;;;;;;;;;;2032667;29;20184;-59
2021/04/05 02:45:20;;;;;;;30.00;17.83;;;;;;;;;;2040747;29;20191;-65
2021/04/05 02:46:23;;;;;;;31.20;20.03;;;;;;;;;;2031793;29;20196;-63
2021/04/05 02:47:23;;;;;;;33.13;20.77;;;;;;;;;;2040180;29;20207;-65
2021/04/05 02:48:24;;;;;;;26.57;18.63;;;;;;;;;;2051876;28;20186;-64
2021/04/05 02:49:24;;;;;;;23.63;14.00;;;;;;;;;;2051803;28;20553;-64
2021/04/05 02:50:26;;;;;;;27.90;16.27;;;;;;;;;;2045498;29;20179;-64
2021/04/05 02:51:26;;;;;;;29.70;18.80;;;;;;;;;;2048655;28;20209;-63
2021/04/05 02:52:27;;;;;;;26.83;19.47;;;;;;;;;;2046420;29;20714;-62
2021/04/05 02:53:27;;;;;;;30.33;19.23;;;;;;;;;;2045190;29;20206;-61
2021/04/05 02:54:28;;;;;;;23.93;18.73;;;;;;;;;;2046345;28;20266;-64
2021/04/05 02:55:28;;;;;;;23.57;16.00;;;;;;;;;;2043937;29;20186;-63
2021/04/05 02:56:29;;;;;;;27.93;17.67;;;;;;;;;;2035913;29;20181;-63
2021/04/05 02:57:29;;;;;;;31.60;19.70;;;;;;;;;;2039791;29;20223;-61
2021/04/05 02:58:31;;;;;;;29.37;20.40;;;;;;;;;;2039691;29;20230;-62
2021/04/05 02:59:31;;;;;;;30.33;19.13;;;;;;;;;;2046097;23;20188;-62
2021/04/05 03:00:32;;;;;;;30.07;21.00;;;;;;;;;;2049838;28;20226;-61
2021/04/05 03:01:32;;;;;;;28.77;19.70;;;;;;;;;;2053462;28;20191;-60
2021/04/05 03:02:32;;;;;;;25.83;16.90;;;;;;;;;;2052729;28;20178;-59
2021/04/05 03:03:33;;;;;;;32.13;20.47;;;;;;;;;;2051762;28;20567;-59
2021/04/05 03:04:34;;;;;;;29.97;17.77;;;;;;;;;;2051969;28;20195;-63
2021/04/05 03:05:35;;;;;;;34.77;20.83;;;;;;;;;;2053182;29;20241;-59
2021/04/05 03:06:35;;;;;;;25.40;16.60;;;;;;;;;;2047490;28;20187;-61
2021/04/05 03:07:36;;;;;;;30.93;19.83;;;;;;;;;;2050575;29;20173;-63
2021/04/05 03:08:37;;;;;;;31.87;21.27;;;;;;;;;;2052437;28;20191;-60
2021/04/05 03:09:38;;;;;;;35.63;20.40;;;;;;;;;;2052374;29;20253;-60
2021/04/05 03:10:39;;;;;;;27.40;18.43;;;;;;;;;;2044933;29;20185;-60
2021/04/05 03:11:43;;;;;;;31.17;18.40;;;;;;;;;;2044210;29;20199;-60
2021/04/05 03:12:43;;;;;;;27.13;17.63;;;;;;;;;;2044717;29;20214;-64
2021/04/05 03:13:44;;;;;;;32.90;20.43;;;;;;;;;;2046365;29;20183;-60
2021/04/05 03:14:44;;;;;;;28.50;19.03;;;;;;;;;;2048761;29;20250;-60
2021/04/05 03:15:45;;;;;;;29.47;18.83;;;;;;;;;;2041090;29;20172;-60
2021/04/05 03:16:47;;;;;;;31.30;19.47;;;;;;;;;;2040212;29;20198;-61
2021/04/05 03:17:48;;;;;;;33.67;20.97;;;;;;;;;;2048238;29;20206;-61
2021/04/05 03:18:49;;;;;;;30.03;20.70;;;;;;;;;;2048948;29;20206;-59
2021/04/05 03:19:51;;;;;;;33.93;19.70;;;;;;;;;;2044838;29;20265;-62
2021/04/05 03:20:52;;;;;;;32.13;20.60;;;;;;;;;;2047114;29;20167;-61
2021/04/05 03:21:52;;;;;;;28.50;19.00;;;;;;;;;;2044630;29;20672;-61
2021/04/05 03:22:53;;;;;;;33.27;21.67;;;;;;;;;;2047343;29;20249;-61
2021/04/05 03:23:53;;;;;;;29.40;19.10;;;;;;;;;;2047097;29;20259;-61
2021/04/05 03:24:53;;;;;;;30.97;21.20;;;;;;;;;;2040339;29;20202;-61
2021/04/05 03:25:53;;;;;;;28.70;18.93;;;;;;;;;;2047552;29;20191;-62
2021/04/05 03:26:54;;;;;;;28.93;18.93;;;;;;;;;;2046729;29;20239;-61
2021/04/05 03:27:54;;;;;;;25.70;14.93;;;;;;;;;;2047495;29;20179;-61
2021/04/05 03:28:55;;;;;;;35.27;19.70;;;;;;;;;;2047193;29;20203;-59
2021/04/05 03:29:59;;;;;;;30.70;18.13;;;;;;;;;;2047740;29;20203;-60
2021/04/05 03:31:01;;;;;;;31.13;21.37;;;;;;;;;;2047703;29;20192;-61
2021/04/05 03:32:02;;;;;;;25.80;15.93;;;;;;;;;;2046627;29;20203;-60
2021/04/05 03:33:11;;;;;;;34.70;20.97;;;;;;;;;;2046769;29;20236;-62
2021/04/05 03:34:24;;;;;;;37.23;21.33;;;;;;;;;;2047282;29;20543;-58
2021/04/05 03:35:31;;;;;;;33.13;19.60;;;;;;;;;;2043572;29;20186;-60
2021/04/05 03:36:50;;;;;;;29.07;19.00;;;;;;;;;;2046679;29;20175;-60
2021/04/05 03:37:51;;;;;;;27.67;19.13;;;;;;;;;;2039135;29;20200;-61
2021/04/05 03:38:51;;;;;;;28.27;19.30;;;;;;;;;;2046793;29;20180;-60
2021/04/05 03:39:51;;;;;;;30.90;19.33;;;;;;;;;;2046154;29;20180;-59
2021/04/05 03:40:52;;;;;;;22.53;16.77;;;;;;;;;;2046022;29;20210;-59
2021/04/05 03:41:52;;;;;;;34.37;18.77;;;;;;;;;;2045307;29;20179;-60
2021/04/05 03:42:58;;;;;;;33.47;22.10;;;;;;;;;;2046578;29;20557;-60
2021/04/05 03:44:05;;;;;;;31.73;19.53;;;;;;;;;;2045871;29;20179;-60
2021/04/05 03:45:11;;;;;;;27.93;18.10;;;;;;;;;;2046157;29;20675;-61
2021/04/05 03:46:14;;;;;;;33.00;19.60;;;;;;;;;;2046263;29;20187;-61
2021/04/05 03:47:18;;;;;;;28.43;19.87;;;;;;;;;;2046460;29;20186;-57
2021/04/05 03:48:21;;;;;;;38.07;19.23;;;;;;;;;;2046689;29;20272;-59
2021/04/05 03:49:33;;;;;;;29.60;17.07;;;;;;;;;;2045400;29;20195;-59
2021/04/05 03:50:38;;;;;;;28.00;18.17;;;;;;;;;;2046176;29;20185;-60
2021/04/05 03:51:47;;;;;;;33.00;19.47;;;;;;;;;;2046025;29;20191;-61
2021/04/05 03:52:57;;;;;;;32.40;21.57;;;;;;;;;;2046776;29;20184;-61
2021/04/05 03:54:02;;;;;;;33.87;20.63;;;;;;;;;;2043996;29;20191;-59
2021/04/05 03:55:05;;;;;;;37.33;21.73;;;;;;;;;;2053376;29;20690;-58
2021/04/05 03:56:09;;;;;;;34.97;20.43;;;;;;;;;;2044867;29;20191;-58
2021/04/05 03:57:11;;;;;;;23.53;15.03;;;;;;;;;;2045265;29;21522;-61
2021/04/05 03:58:14;;;;;;;33.40;22.97;;;;;;;;;;2053885;29;20632;-60
2021/04/05 03:59:28;;;;;;;35.40;20.43;;;;;;;;;;2053644;29;20521;-60
2021/04/05 04:00:29;;;;;;;40.80;21.37;;;;;;;;;;2045738;29;20179;-61
2021/04/05 04:01:30;;;;;;;29.77;19.23;;;;;;;;;;2045883;29;20239;-62
2021/04/05 04:02:32;;;;;;;32.03;18.47;;;;;;;;;;2046151;29;20172;-60
2021/04/05 04:03:37;;;;;;;24.93;16.70;;;;;;;;;;2044968;29;20179;-61
2021/04/05 04:04:47;;;;;;;31.63;19.87;;;;;;;;;;2048198;29;20206;-60
2021/04/05 04:05:57;;;;;;;32.50;18.97;;;;;;;;;;2039323;29;20180;-60
2021/04/05 04:08:17;;;;;;;33.40;21.60;;;;;;;;;;2045859;29;20180;-61
2021/04/05 04:09:19;;;;;;;36.33;21.90;;;;;;;;;;2038382;29;20206;-60
2021/04/05 04:10:21;;;;;;;28.87;18.13;;;;;;;;;;2045572;29;20231;-61
2021/04/05 04:11:26;;;;;;;26.97;18.33;;;;;;;;;;2046164;29;20180;-60
2021/04/05 04:12:28;;;;;;;26.87;15.47;;;;;;;;;;2045261;29;20188;-59
2021/04/05 04:13:28;;;;;;;32.93;19.77;;;;;;;;;;2045582;29;20851;-61
2021/04/05 04:14:30;;;;;;;35.70;22.13;;;;;;;;;;2052991;29;20175;-61
2021/04/05 04:15:32;;;;;;;33.90;21.80;;;;;;;;;;2045906;29;20191;-60
2021/04/05 04:16:33;;;;;;;29.80;18.00;;;;;;;;;;2045599;29;20676;-60
2021/04/05 04:17:34;;;;;;;33.20;21.30;;;;;;;;;;2045798;29;20176;-60
2021/04/05 04:18:34;;;;;;;27.60;17.93;;;;;;;;;;2045287;29;20228;-60
2021/04/05 04:19:36;;;;;;;30.17;19.57;;;;;;;;;;2045613;29;20259;-59
2021/04/05 04:20:37;;;;;;;27.73;17.53;;;;;;;;;;2044987;29;20172;-57
2021/04/05 04:21:40;;;;;;;28.07;20.73;;;;;;;;;;2034564;29;20256;-60
2021/04/05 04:22:40;;;;;;;30.83;19.47;;;;;;;;;;2043873;29;20728;-59
2021/04/05 04:23:41;;;;;;;30.40;18.63;;;;;;;;;;2051935;29;20191;-59
2021/04/05 04:24:41;;;;;;;28.50;17.03;;;;;;;;;;2045026;29;20171;-59
2021/04/05 04:25:42;;;;;;;27.43;18.50;;;;;;;;;;2045144;29;20183;-59
2021/04/05 04:26:42;;;;;;;33.83;18.20;;;;;;;;;;2044494;29;20190;-60
2021/04/05 04:27:46;;;;;;;32.67;19.00;;;;;;;;;;2036901;29;20247;-60
2021/04/05 04:28:46;;;;;;;30.80;18.27;;;;;;;;;;2045222;29;20582;-60
2021/04/05 04:29:56;;;;;;;26.10;16.93;;;;;;;;;;2052423;29;20209;-60
2021/04/05 04:30:56;;;;;;;30.67;19.73;;;;;;;;;;2044991;29;20195;-59
2021/04/05 04:31:57;;;;;;;29.60;19.53;;;;;;;;;;2044324;29;20555;-60
2021/04/05 04:32:58;;;;;;;33.43;20.03;;;;;;;;;;2045246;29;20182;-60
2021/04/05 04:33:58;;;;;;;33.07;21.27;;;;;;;;;;2036474;29;20176;-61
2021/04/05 04:34:59;;;;;;;19.50;13.57;;;;;;;;;;2028097;29;20747;-58
2021/04/05 04:35:59;;;;;;;26.30;18.27;;;;;;;;;;2038213;29;20172;-60
2021/04/05 04:37:03;;;;;;;32.70;20.03;;;;;;;;;;2042984;29;20202;-60
2021/04/05 04:38:04;;;;;;;28.53;18.67;;;;;;;;;;2042259;29;20186;-61
2021/04/05 04:39:04;;;;;;;36.03;20.33;;;;;;;;;;2038159;29;20177;-58
2021/04/05 04:40:05;;;;;;;27.83;17.20;;;;;;;;;;2044255;29;20211;-60
2021/04/05 04:41:05;;;;;;;32.57;22.27;;;;;;;;;;2051323;29;20203;-60
2021/04/05 04:42:06;;;;;;;37.03;20.00;;;;;;;;;;2051072;29;20179;-60
2021/04/05 04:43:07;;;;;;;29.73;17.63;;;;;;;;;;2044083;29;20609;-59
2021/04/05 04:44:07;;;;;;;34.03;18.57;;;;;;;;;;2045567;29;20572;-60
2021/04/05 04:45:08;;;;;;;29.77;18.93;;;;;;;;;;2044842;29;20214;-60
2021/04/05 04:46:08;;;;;;;30.80;18.83;;;;;;;;;;2037431;29;20200;-60
2021/04/05 04:47:08;;;;;;;28.30;16.77;;;;;;;;;;2036066;29;20192;-59
2021/04/05 04:48:09;;;;;;;25.17;17.93;;;;;;;;;;2044803;29;20184;-61
2021/04/05 04:49:11;;;;;;;27.10;18.00;;;;;;;;;;2044991;29;20219;-59
2021/04/05 04:50:15;;;;;;;27.50;18.03;;;;;;;;;;2045908;29;20292;-60
2021/04/05 04:51:15;;;;;;;34.47;23.23;;;;;;;;;;2045174;29;20656;-60
2021/04/05 04:52:19;;;;;;;31.53;21.97;;;;;;;;;;2046417;29;20188;-61
2021/04/05 04:53:19;;;;;;;28.73;17.07;;;;;;;;;;2045229;29;20179;-61
2021/04/05 04:54:19;;;;;;;30.93;19.53;;;;;;;;;;2052847;29;20194;-61
2021/04/05 04:55:23;;;;;;;32.60;22.07;;;;;;;;;;2044746;29;20187;-59
2021/04/05 04:56:24;;;;;;;38.23;22.97;;;;;;;;;;2043854;29;20184;-61
2021/04/05 04:57:25;;;;;;;36.63;22.70;;;;;;;;;;2042132;29;20191;-61
2021/04/05 04:58:25;;;;;;;32.97;21.70;;;;;;;;;;2045140;29;20211;-60
2021/04/05 04:59:26;;;;;;;38.77;23.83;;;;;;;;;;2044303;29;20243;-60
2021/04/05 05:00:27;;;;;;;39.07;22.43;;;;;;;;;;2044923;29;20653;-60
2021/04/05 05:01:29;;;;;;;33.57;21.23;;;;;;;;;;2042287;29;20195;-60
2021/04/05 05:02:29;;;;;;;38.23;24.53;;;;;;;;;;2045611;29;20183;-60
2021/04/05 05:03:31;;;;;;;36.00;20.80;;;;;;;;;;2045568;29;20239;-60
2021/04/05 05:04:32;;;;;;;40.17;25.80;;;;;;;;;;2045200;29;20214;-60
2021/04/05 05:05:33;;;;;;;35.07;23.93;;;;;;;;;;2046157;29;20180;-60
2021/04/05 05:06:34;;;;;;;35.63;23.53;;;;;;;;;;2045462;29;20187;-59
2021/04/05 05:07:35;;;;;;;31.27;21.37;;;;;;;;;;2039461;29;20184;-59
2021/04/05 05:08:36;;;;;;;36.83;24.83;;;;;;;;;;2037127;29;20220;-60
2021/04/05 05:09:36;;;;;;;34.80;23.67;;;;;;;;;;2046106;29;20207;-59
2021/04/05 05:10:40;;;;;;;35.07;22.37;;;;;;;;;;2045670;29;20195;-63
2021/04/05 05:11:41;;;;;;;36.00;23.47;;;;;;;;;;2044610;29;20191;-62
2021/04/05 05:12:42;;;;;;;39.67;23.87;;;;;;;;;;2046523;29;20168;-62
2021/04/05 05:13:43;;;;;;;44.40;26.00;;;;;;;;;;2044876;29;20183;-61
2021/04/05 05:14:43;;;;;;;39.53;24.50;;;;;;;;;;2045771;29;20234;-60
2021/04/05 05:15:44;;;;;;;40.53;25.17;;;;;;;;;;2044639;29;20227;-61
2021/04/05 05:16:45;;;;;;;40.10;24.67;;;;;;;;;;2045500;29;20187;-60
2021/04/05 05:17:46;;;;;;;46.73;25.33;;;;;;;;;;2045457;29;20279;-61
2021/04/05 05:18:46;;;;;;;53.40;27.23;;;;;;;;;;2044270;29;20680;-60
2021/04/05 05:19:47;;;;;;;34.43;19.93;;;;;;;;;;2044783;29;20226;-60
2021/04/05 05:20:47;;;;;;;42.10;25.33;;;;;;;;;;2043499;29;20195;-59
2021/04/05 05:21:53;;;;;;;40.77;27.93;;;;;;;;;;2035654;29;20251;-59
2021/04/05 05:22:56;;;;;;;37.23;24.57;;;;;;;;;;2029297;29;20670;-60
2021/04/05 05:23:57;;;;;;;43.80;28.87;;;;;;;;;;2035855;29;20180;-60
2021/04/05 05:24:58;;;;;;;40.77;27.60;;;;;;;;;;2043488;29;20230;-59
2021/04/05 05:25:59;;;;;;;49.90;28.00;;;;;;;;;;2044150;29;20187;-60
2021/04/05 05:27:00;;;;;;;43.13;28.83;;;;;;;;;;2043356;29;20171;-61
2021/04/05 05:28:05;;;;;;;47.90;28.80;;;;;;;;;;2043933;29;20801;-60
2021/04/05 05:29:10;;;;;;;49.47;30.50;;;;;;;;;;2044009;29;20223;-59
2021/04/05 05:30:20;;;;;;;42.63;27.70;;;;;;;;;;2044344;29;20222;-60
2021/04/05 05:31:20;;;;;;;39.53;24.30;;;;;;;;;;2039155;29;20183;-61
2021/04/05 05:32:22;;;;;;;43.90;28.33;;;;;;;;;;2043854;29;20227;-60
2021/04/05 05:33:22;;;;;;;47.50;29.47;;;;;;;;;;2044040;29;20187;-59
2021/04/05 05:34:23;;;;;;;50.43;30.40;;;;;;;;;;2043895;29;20186;-60
2021/04/05 05:35:24;;;;;;;46.97;27.60;;;;;;;;;;2043625;29;20172;-59
2021/04/05 05:36:24;;;;;;;56.83;29.17;;;;;;;;;;2043488;29;20247;-60
2021/04/05 05:37:24;;;;;;;43.43;29.60;;;;;;;;;;2044363;29;20188;-61
2021/04/05 05:38:28;;;;;;;38.97;28.27;;;;;;;;;;2044031;29;20188;-60
2021/04/05 05:39:28;;;;;;;51.93;28.07;;;;;;;;;;2045139;29;20279;-60
2021/04/05 05:40:29;;;;;;;49.30;28.53;;;;;;;;;;2044612;29;20186;-59
2021/04/05 05:41:35;;;;;;;44.33;26.90;;;;;;;;;;2044703;29;20179;-60
2021/04/05 05:42:42;;;;;;;33.27;21.17;;;;;;;;;;2044327;29;20179;-59
2021/04/05 05:43:46;;;;;;;43.57;27.57;;;;;;;;;;2044700;29;20345;-60
2021/04/05 05:44:52;;;;;;;45.03;27.80;;;;;;;;;;2044251;29;20204;-56
2021/04/05 05:45:55;;;;;;;34.33;20.53;;;;;;;;;;2044430;29;20168;-60
2021/04/05 05:47:07;;;;;;;37.37;23.20;;;;;;;;;;2043804;29;20630;-60
2021/04/05 05:48:10;;;;;;;45.33;27.83;;;;;;;;;;2044393;29;20179;-60
2021/04/05 05:49:25;;;;;;;46.07;24.67;;;;;;;;;;2044520;29;20183;-61
2021/04/05 05:50:28;;;;;;;28.33;18.53;;;;;;;;;;2045288;29;20187;-60
2021/04/05 05:51:47;;;;;;;40.63;25.07;;;;;;;;;;2046561;29;20180;-61
2021/04/05 05:52:54;;;;;;;40.43;24.17;;;;;;;;;;2046287;29;20188;-60
2021/04/05 05:54:12;;;;;;;32.90;23.23;;;;;;;;;;2046668;29;20192;-62
2021/04/05 05:55:20;;;;;;;34.53;20.87;;;;;;;;;;2046208;29;20291;-61
2021/04/05 05:56:23;;;;;;;32.77;22.00;;;;;;;;;;2045027;29;20168;-61
2021/04/05 05:57:30;;;;;;;37.10;23.80;;;;;;;;;;2045204;29;20536;-61
2021/04/05 05:58:33;;;;;;;35.77;22.87;;;;;;;;;;2045200;29;20266;-61
2021/04/05 05:59:43;;;;;;;30.30;16.60;;;;;;;;;;2044106;29;20183;-63
2021/04/05 06:01:03;;;;;;;43.33;24.30;;;;;;;;;;2037722;29;20184;-61
2021/04/05 06:02:04;;;;;;;38.53;23.73;;;;;;;;;;2041866;29;20183;-61